createdAt,value
2023-01-17T00:02:17.264Z,5.25
2023-01-17T00:05:22.869Z,6.75
2023-01-17T00:08:30.352Z,8.20
2023-01-17T00:11:16.937Z,6.15
2023-01-17T00:14:02.823Z,4.40
2023-01-17T00:16:49.346Z,3.80
2023-01-17T00:19:53.951Z,4.95
2023-01-17T00:23:01.183Z,2.45
2023-01-17T00:26:06.115Z,5.90
2023-01-17T00:28:52.229Z,5.75
2023-01-17T00:31:38.533Z,7.05
2023-01-17T00:34:24.530Z,1.85
2023-01-17T00:37:11.318Z,4.43
2023-01-17T00:39:57.906Z,1.55
2023-01-17T00:42:43.982Z,5.22
2023-01-17T00:45:48.860Z,1.90
2023-01-17T00:48:53.527Z,2.28
2023-01-17T00:51:58.288Z,1.88
2023-01-17T00:55:03.496Z,1.23
2023-01-17T00:58:08.777Z,0.80
2023-01-17T01:01:14.099Z,3.17
2023-01-17T01:04:19.201Z,3.60
2023-01-17T01:07:24.041Z,2.63
2023-01-17T01:10:29.082Z,4.47
2023-01-17T01:13:34.119Z,0.60
2023-01-17T01:16:39.277Z,0.85
2023-01-17T01:19:43.909Z,0.75
2023-01-17T01:22:48.622Z,2.40
2023-01-17T01:25:54.250Z,4.18
2023-01-17T01:28:58.783Z,1.52
2023-01-17T01:32:03.269Z,5.30
2023-01-17T01:34:49.111Z,2.65
2023-01-17T01:37:35.317Z,8.98
2023-01-17T01:40:21.623Z,8.45
2023-01-17T01:43:10.274Z,4.55
2023-01-17T01:45:57.925Z,7.65
2023-01-17T01:49:03.552Z,5.05
2023-01-17T01:51:52.821Z,2.70
2023-01-17T01:54:44.704Z,5.82
2023-01-17T01:57:34.509Z,0.70
2023-01-17T02:00:25.065Z,4.70
2023-01-17T02:03:13.268Z,2.00
2023-01-17T02:06:02.519Z,1.00
2023-01-17T02:08:49.270Z,1.73
2023-01-17T02:11:37.412Z,5.72
2023-01-17T02:14:23.411Z,5.60
2023-01-17T02:17:32.620Z,3.80
2023-01-17T02:20:37.595Z,2.05
2023-01-17T02:23:38.597Z,1.45
2023-01-17T02:26:24.381Z,0.93
2023-01-17T02:29:29.492Z,3.50
2023-01-17T02:32:15.451Z,4.32
2023-01-17T02:35:13.867Z,2.70
2023-01-17T02:38:08.149Z,2.17
2023-01-17T02:41:09.341Z,1.98
2023-01-17T02:43:55.633Z,0.60
2023-01-17T02:47:03.016Z,2.22
2023-01-17T02:49:49.327Z,0.85
2023-01-17T02:52:54.052Z,1.52
2023-01-17T02:56:01.033Z,2.85
2023-01-17T02:58:53.056Z,3.97
2023-01-17T03:01:52.073Z,2.58
2023-01-17T03:04:41.537Z,0.68
2023-01-17T03:07:28.521Z,1.63
2023-01-17T03:10:16.401Z,4.25
2023-01-17T03:13:03.221Z,3.53
2023-01-17T03:15:49.690Z,2.88
2023-01-17T03:18:35.703Z,2.67
2023-01-17T03:21:22.688Z,0.90
2023-01-17T03:24:09.197Z,0.95
2023-01-17T03:26:55.405Z,3.72
2023-01-17T03:29:41.708Z,2.40
2023-01-17T03:32:28.335Z,3.22
2023-01-17T03:35:14.427Z,3.03
2023-01-17T03:38:00.558Z,3.22
2023-01-17T03:40:46.885Z,0.95
2023-01-17T03:43:33.490Z,3.13
2023-01-17T03:46:21.192Z,3.80
2023-01-17T03:49:07.123Z,4.00
2023-01-17T03:51:53.387Z,1.52
2023-01-17T03:54:39.732Z,4.32
2023-01-17T03:57:26.123Z,3.47
2023-01-17T04:00:13.004Z,0.60
2023-01-17T04:02:59.585Z,2.08
2023-01-17T04:05:45.947Z,2.20
2023-01-17T04:08:32.092Z,3.30
2023-01-17T04:11:18.200Z,2.60
2023-01-17T04:14:04.470Z,1.05
2023-01-17T04:16:50.865Z,2.83
2023-01-17T04:19:37.048Z,1.20
2023-01-17T04:22:23.524Z,2.55
2023-01-17T04:25:09.815Z,1.40
2023-01-17T04:27:55.999Z,2.80
2023-01-17T04:30:42.358Z,0.50
2023-01-17T04:33:28.547Z,3.53
2023-01-17T04:36:14.803Z,2.65
2023-01-17T04:39:01.246Z,0.95
2023-01-17T04:41:47.411Z,5.55
2023-01-17T04:44:33.631Z,5.97
2023-01-17T04:47:19.859Z,3.60
2023-01-17T04:50:06.239Z,8.02
2023-01-17T04:52:52.500Z,4.15
2023-01-17T04:55:38.623Z,1.88
2023-01-17T04:58:24.843Z,1.42
2023-01-17T05:01:11.311Z,5.25
2023-01-17T05:03:57.941Z,2.15
2023-01-17T05:06:44.983Z,7.07
2023-01-17T05:09:31.043Z,3.45
2023-01-17T05:12:17.466Z,1.85
2023-01-17T05:15:04.016Z,3.03
2023-01-17T05:17:50.939Z,5.78
2023-01-17T05:20:36.953Z,1.33
2023-01-17T05:23:23.270Z,8.05
2023-01-17T05:26:09.622Z,1.92
2023-01-17T05:28:55.987Z,26.42
2023-01-17T05:31:42.330Z,5.95
2023-01-17T05:34:28.663Z,15.95
2023-01-17T05:37:14.880Z,23.77
2023-01-17T05:40:01.120Z,3.17
2023-01-17T05:42:51.190Z,5.47
2023-01-17T05:45:38.421Z,5.68
2023-01-17T05:48:24.597Z,7.18
2023-01-17T05:51:11.165Z,8.38
2023-01-17T05:53:57.333Z,9.93
2023-01-17T05:56:43.714Z,8.48
2023-01-17T05:59:37.025Z,10.13
2023-01-17T06:02:23.554Z,9.25
2023-01-17T06:05:10.117Z,7.18
2023-01-17T06:07:56.791Z,9.25
2023-01-17T06:10:42.847Z,2.70
2023-01-17T06:13:29.085Z,3.38
2023-01-17T06:16:15.236Z,12.15
2023-01-17T06:22:04.596Z,1.55
2023-01-17T06:24:51.303Z,8.32
2023-01-17T06:30:39.159Z,2.53
2023-01-17T06:33:25.216Z,6.00
2023-01-17T06:36:11.537Z,1.40
2023-01-17T06:38:57.680Z,5.90
2023-01-17T06:41:43.982Z,4.88
2023-01-17T06:44:31.244Z,4.65
2023-01-17T06:47:17.668Z,5.90
2023-01-17T06:50:04.177Z,1.73
2023-01-17T06:52:57.555Z,6.68
2023-01-17T06:55:43.949Z,10.20
2023-01-17T06:58:30.062Z,10.05
2023-01-17T07:01:16.739Z,5.85
2023-01-17T07:04:04.458Z,7.90
2023-01-17T07:06:50.345Z,5.00
2023-01-17T07:09:36.905Z,2.15
2023-01-17T07:12:23.132Z,6.40
2023-01-17T07:15:09.744Z,5.57
2023-01-17T07:17:56.056Z,4.97
2023-01-17T07:20:44.086Z,5.75
2023-01-17T07:23:30.513Z,12.30
2023-01-17T07:26:17.546Z,5.18
2023-01-17T07:29:06.652Z,10.77
2023-01-17T07:31:52.787Z,8.77
2023-01-17T07:34:41.635Z,2.13
2023-01-17T07:37:27.783Z,6.22
2023-01-17T07:40:14.521Z,10.90
2023-01-17T07:43:04.099Z,2.55
2023-01-17T07:45:51.373Z,14.07
2023-01-17T07:48:37.593Z,15.02
2023-01-17T07:51:23.665Z,16.70
2023-01-17T07:54:11.773Z,12.27
2023-01-17T07:56:57.876Z,14.50
2023-01-17T07:59:44.078Z,10.65
2023-01-17T08:02:30.207Z,8.85
2023-01-17T08:05:16.628Z,16.77
2023-01-17T08:08:02.839Z,4.35
2023-01-17T08:10:49.748Z,12.55
2023-01-17T08:13:36.131Z,4.30
2023-01-17T08:16:22.404Z,15.02
2023-01-17T08:19:08.765Z,13.45
2023-01-17T08:21:54.899Z,36.75
2023-01-17T08:24:42.088Z,5.47
2023-01-17T08:27:29.085Z,8.32
2023-01-17T08:30:15.510Z,28.98
2023-01-17T08:33:01.509Z,32.30
2023-01-17T08:35:51.467Z,30.88
2023-01-17T08:38:37.876Z,31.88
2023-01-17T08:41:24.612Z,7.65
2023-01-17T08:44:11.050Z,69.55
2023-01-17T08:46:57.307Z,22.65
2023-01-17T08:49:44.185Z,50.05
2023-01-17T08:52:30.718Z,47.97
2023-01-17T08:55:17.449Z,27.83
2023-01-17T08:58:03.696Z,31.10
2023-01-17T09:00:50.064Z,23.90
2023-01-17T09:03:38.901Z,47.92
2023-01-17T09:06:27.024Z,10.80
2023-01-17T09:09:13.999Z,17.65
2023-01-17T09:12:00.448Z,3.88
2023-01-17T09:14:47.020Z,38.60
2023-01-17T09:17:33.594Z,14.55
2023-01-17T09:20:19.653Z,39.25
2023-01-17T09:23:05.956Z,6.88
2023-01-17T09:25:53.153Z,50.80
2023-01-17T09:28:41.227Z,37.17
2023-01-17T09:31:27.706Z,29.15
2023-01-17T09:34:14.461Z,54.53
2023-01-17T09:37:00.545Z,81.03
2023-01-17T09:39:46.797Z,108.35
2023-01-17T09:42:38.394Z,23.00
2023-01-17T09:45:25.870Z,11.82
2023-01-17T09:48:18.014Z,26.23
2023-01-17T09:51:15.077Z,4.00
2023-01-17T09:54:02.590Z,49.20
2023-01-17T09:57:11.917Z,8.85
2023-01-17T10:00:17.032Z,14.98
2023-01-17T10:03:23.425Z,9.98
2023-01-17T10:06:22.008Z,9.95
2023-01-17T10:09:11.474Z,9.57
2023-01-17T10:12:36.466Z,32.80
2023-01-17T10:15:25.295Z,13.63
2023-01-17T10:18:30.686Z,16.52
2023-01-17T10:21:34.811Z,17.13
2023-01-17T10:24:39.339Z,18.77
2023-01-17T10:27:28.032Z,16.60
2023-01-17T10:30:17.171Z,11.45
2023-01-17T10:33:15.917Z,12.75
2023-01-17T10:36:15.809Z,10.70
2023-01-17T10:39:05.003Z,4.32
2023-01-17T10:41:55.523Z,14.02
2023-01-17T10:44:51.183Z,7.45
2023-01-17T10:47:38.219Z,11.38
2023-01-17T10:50:27.281Z,11.73
2023-01-17T10:53:24.877Z,5.97
2023-01-17T10:56:13.929Z,4.65
2023-01-17T10:59:18.862Z,9.85
2023-01-17T11:02:15.370Z,8.82
2023-01-17T11:05:03.951Z,15.90
2023-01-17T11:08:06.567Z,12.63
2023-01-17T11:10:57.407Z,14.02
2023-01-17T11:13:45.192Z,7.97
2023-01-17T11:16:32.083Z,7.50
2023-01-17T11:19:26.031Z,10.25
2023-01-17T11:22:14.928Z,17.35
2023-01-17T11:25:01.460Z,16.85
2023-01-17T11:27:57.911Z,10.18
2023-01-17T11:30:55.603Z,9.88
2023-01-17T11:33:48.188Z,8.75
2023-01-17T11:36:34.814Z,20.05
2023-01-17T11:39:23.252Z,44.03
2023-01-17T11:42:29.828Z,9.10
2023-01-17T11:45:26.166Z,12.35
2023-01-17T11:48:17.351Z,14.32
2023-01-17T11:51:04.359Z,10.77
2023-01-17T11:53:50.605Z,11.63
2023-01-17T11:56:37.128Z,8.95
2023-01-17T11:59:35.363Z,23.38
2023-01-17T12:02:34.409Z,13.55
2023-01-17T12:05:28.199Z,5.50
2023-01-17T12:08:26.625Z,6.43
2023-01-17T12:11:16.901Z,6.20
2023-01-17T12:14:19.870Z,6.43
2023-01-17T12:17:24.462Z,10.65
2023-01-17T12:20:18.117Z,12.13
2023-01-17T12:23:23.362Z,1.58
2023-01-17T12:26:19.724Z,16.50
2023-01-17T12:29:24.455Z,20.02
2023-01-17T12:32:29.796Z,13.10
2023-01-17T12:35:25.469Z,12.05
2023-01-17T12:38:27.361Z,15.60
2023-01-17T12:41:41.472Z,16.85
2023-01-17T12:44:37.540Z,11.57
2023-01-17T12:47:23.909Z,10.57
2023-01-17T12:50:18.959Z,10.35
2023-01-17T12:53:14.869Z,16.38
2023-01-17T12:56:04.499Z,12.50
2023-01-17T12:58:56.886Z,16.00
2023-01-17T13:01:44.535Z,11.73
2023-01-17T13:04:57.222Z,7.93
2023-01-17T13:07:48.215Z,2.58
2023-01-17T13:10:47.956Z,4.50
2023-01-17T13:13:35.857Z,29.00
2023-01-17T13:16:42.180Z,20.65
2023-01-17T13:19:38.070Z,13.32
2023-01-17T13:22:27.226Z,9.90
2023-01-17T13:25:13.551Z,13.30
2023-01-17T13:28:23.417Z,9.38
2023-01-17T13:31:10.280Z,14.45
2023-01-17T13:34:03.423Z,10.18
2023-01-17T13:37:04.782Z,6.93
2023-01-17T13:39:56.861Z,8.57
2023-01-17T13:43:19.809Z,10.77
2023-01-17T13:46:09.257Z,12.88
2023-01-17T13:49:15.327Z,19.80
2023-01-17T13:52:11.096Z,31.67
2023-01-17T13:54:58.933Z,14.57
2023-01-17T13:57:46.351Z,12.27
2023-01-17T14:00:35.812Z,19.73
2023-01-17T14:03:42.379Z,15.18
2023-01-17T14:06:30.588Z,15.45
2023-01-17T14:09:25.430Z,12.85
2023-01-17T14:12:11.366Z,14.55
2023-01-17T14:15:00.768Z,9.48
2023-01-17T14:17:57.146Z,7.38
2023-01-17T14:20:46.995Z,6.63
2023-01-17T14:23:35.548Z,7.35
2023-01-17T14:26:28.568Z,4.45
2023-01-17T14:29:34.289Z,7.13
2023-01-17T14:32:22.259Z,7.05
2023-01-17T14:35:21.971Z,13.32
2023-01-17T14:38:22.456Z,8.35
2023-01-17T14:41:13.940Z,16.10
2023-01-17T14:44:01.399Z,17.17
2023-01-17T14:46:48.885Z,12.80
2023-01-17T14:49:36.027Z,5.95
2023-01-17T14:52:23.757Z,6.78
2023-01-17T14:55:19.965Z,10.05
2023-01-17T14:58:06.059Z,7.32
2023-01-17T15:00:55.509Z,9.70
2023-01-17T15:03:44.297Z,9.38
2023-01-17T15:06:37.603Z,10.70
2023-01-17T15:09:24.919Z,10.40
2023-01-17T15:12:33.999Z,13.30
2023-01-17T15:18:16.021Z,23.90
2023-01-17T15:21:04.169Z,50.20
2023-01-17T15:23:52.606Z,36.47
2023-01-17T15:26:42.281Z,32.20
2023-01-17T15:29:31.132Z,278.25
2023-01-17T15:32:23.361Z,206.20
2023-01-17T15:35:17.143Z,131.40
2023-01-17T15:38:05.714Z,62.25
2023-01-17T15:40:52.098Z,123.82
2023-01-17T15:43:40.076Z,75.20
2023-01-17T15:46:33.120Z,63.45
2023-01-17T15:49:21.012Z,73.65
2023-01-17T15:52:14.049Z,38.03
2023-01-17T15:55:11.031Z,29.58
2023-01-17T15:57:57.489Z,62.92
2023-01-17T16:01:02.191Z,64.07
2023-01-17T16:03:52.310Z,16.20
2023-01-17T16:06:57.222Z,19.80
2023-01-17T16:09:47.227Z,17.38
2023-01-17T16:12:33.270Z,35.83
2023-01-17T16:15:20.559Z,25.08
2023-01-17T16:18:16.742Z,17.23
2023-01-17T16:21:17.302Z,13.95
2023-01-17T16:24:03.591Z,27.30
2023-01-17T16:26:50.178Z,19.33
2023-01-17T16:29:36.295Z,17.45
2023-01-17T16:32:22.673Z,9.93
2023-01-17T16:35:19.235Z,15.30
2023-01-17T16:38:07.098Z,14.20
2023-01-17T16:40:54.316Z,18.58
2023-01-17T16:43:40.844Z,11.25
2023-01-17T16:46:29.646Z,13.77
2023-01-17T16:49:16.210Z,13.95
2023-01-17T16:52:02.220Z,11.95
2023-01-17T16:54:48.409Z,24.23
2023-01-17T16:57:34.897Z,8.80
2023-01-17T17:00:22.807Z,8.90
2023-01-17T17:03:30.793Z,15.05
2023-01-17T17:06:19.292Z,8.75
2023-01-17T17:09:09.966Z,13.43
2023-01-17T17:11:57.013Z,14.63
2023-01-17T17:14:43.419Z,8.63
2023-01-17T17:17:30.558Z,16.33
2023-01-17T17:20:26.486Z,8.35
2023-01-17T17:23:12.748Z,10.82
2023-01-17T17:25:58.836Z,15.93
2023-01-17T17:28:45.538Z,12.52
2023-01-17T17:31:32.044Z,6.35
2023-01-17T17:34:19.387Z,33.10
2023-01-17T17:37:05.735Z,9.55
2023-01-17T17:39:53.398Z,24.80
2023-01-17T17:42:42.144Z,11.93
2023-01-17T17:45:28.564Z,14.45
2023-01-17T17:48:15.787Z,5.45
2023-01-17T17:51:02.491Z,14.50
2023-01-17T17:53:48.764Z,9.32
2023-01-17T17:56:35.640Z,17.33
2023-01-17T17:59:21.889Z,9.68
2023-01-17T18:02:11.121Z,11.80
2023-01-17T18:04:58.488Z,10.02
2023-01-17T18:07:45.546Z,9.27
2023-01-17T18:10:35.151Z,14.15
2023-01-17T18:13:22.629Z,9.07
2023-01-17T18:16:11.260Z,12.85
2023-01-17T18:18:58.044Z,12.00
2023-01-17T18:21:44.964Z,14.85
2023-01-17T18:24:33.476Z,24.73
2023-01-17T18:27:20.035Z,6.03
2023-01-17T18:30:06.321Z,21.33
2023-01-17T18:32:52.933Z,3.65
2023-01-17T18:35:39.080Z,19.33
2023-01-17T18:38:28.957Z,15.98
2023-01-17T18:41:19.671Z,8.90
2023-01-17T18:44:07.075Z,18.20
2023-01-17T18:46:58.282Z,9.40
2023-01-17T18:49:45.070Z,10.93
2023-01-17T18:52:31.187Z,17.52
2023-01-17T18:55:17.391Z,12.85
2023-01-17T18:58:03.633Z,11.20
2023-01-17T19:00:50.513Z,17.80
2023-01-17T19:03:37.799Z,16.30
2023-01-17T19:06:28.672Z,15.85
2023-01-17T19:09:15.844Z,13.07
2023-01-17T19:12:02.133Z,7.30
2023-01-17T19:14:47.965Z,9.13
2023-01-17T19:17:33.967Z,10.07
2023-01-17T19:20:20.942Z,14.13
2023-01-17T19:23:07.838Z,6.78
2023-01-17T19:25:55.166Z,17.33
2023-01-17T19:28:41.825Z,20.02
2023-01-17T19:31:29.135Z,13.63
2023-01-17T19:34:19.044Z,14.25
2023-01-17T19:37:06.378Z,12.52
2023-01-17T19:39:52.250Z,8.13
2023-01-17T19:42:38.395Z,4.53
2023-01-17T19:45:24.828Z,8.50
2023-01-17T19:48:14.543Z,7.05
2023-01-17T19:51:20.588Z,6.05
2023-01-17T19:54:08.570Z,4.45
2023-01-17T19:56:54.810Z,8.15
2023-01-17T19:59:40.965Z,6.95
2023-01-17T20:02:27.773Z,5.18
2023-01-17T20:05:13.877Z,6.57
2023-01-17T20:08:00.911Z,16.33
2023-01-17T20:10:49.066Z,7.25
2023-01-17T20:13:35.610Z,4.80
2023-01-17T20:16:22.237Z,12.02
2023-01-17T20:19:08.487Z,5.63
2023-01-17T20:21:55.208Z,4.32
2023-01-17T20:24:41.279Z,8.80
2023-01-17T20:27:28.228Z,1.60
2023-01-17T20:30:20.078Z,2.88
2023-01-17T20:33:09.185Z,7.65
2023-01-17T20:36:09.728Z,8.43
2023-01-17T20:38:57.507Z,5.32
2023-01-17T20:41:47.302Z,6.30
2023-01-17T20:44:34.489Z,4.32
2023-01-17T20:47:20.330Z,14.02
2023-01-17T20:50:25.024Z,4.47
2023-01-17T20:53:11.857Z,4.75
2023-01-17T20:55:57.903Z,10.05
2023-01-17T20:58:44.116Z,8.63
2023-01-17T21:01:31.066Z,5.45
2023-01-17T21:04:36.182Z,5.30
2023-01-17T21:07:22.278Z,3.47
2023-01-17T21:10:08.777Z,1.60
2023-01-17T21:12:54.985Z,4.63
2023-01-17T21:15:47.264Z,7.57
2023-01-17T21:18:33.561Z,5.97
2023-01-17T21:21:25.016Z,4.40
2023-01-17T21:24:16.485Z,5.20
2023-01-17T21:27:03.894Z,3.27
2023-01-17T21:29:53.456Z,5.35
2023-01-17T21:32:47.096Z,3.00
2023-01-17T21:36:06.222Z,3.28
2023-01-17T21:39:11.948Z,3.95
2023-01-17T21:41:59.996Z,3.88
2023-01-17T21:44:48.740Z,2.95
2023-01-17T21:47:37.334Z,3.05
2023-01-17T21:50:46.604Z,3.05
2023-01-17T21:53:34.572Z,5.10
2023-01-17T21:56:39.284Z,3.47
2023-01-17T21:59:25.152Z,2.80
2023-01-17T22:02:11.736Z,3.90
2023-01-17T22:05:16.513Z,2.63
2023-01-17T22:08:37.996Z,7.82
2023-01-17T22:11:29.206Z,3.63
2023-01-17T22:14:15.097Z,4.13
2023-01-17T22:17:01.787Z,4.40
2023-01-17T22:19:47.756Z,5.05
2023-01-17T22:22:34.851Z,7.45
2023-01-17T22:25:21.526Z,5.50
2023-01-17T22:28:11.037Z,22.88
2023-01-17T22:31:00.399Z,4.20
2023-01-17T22:33:48.265Z,3.97
2023-01-17T22:36:35.141Z,4.00
2023-01-17T22:39:23.786Z,1.95
2023-01-17T22:42:14.089Z,2.03
2023-01-17T22:45:01.382Z,4.03
2023-01-17T22:47:51.719Z,1.95
2023-01-17T22:50:38.868Z,1.67
2023-01-17T22:53:28.476Z,3.63
2023-01-17T22:56:21.356Z,2.17
2023-01-17T22:59:11.790Z,2.88
2023-01-17T23:01:57.958Z,2.58
2023-01-17T23:04:44.844Z,3.70
2023-01-17T23:07:44.285Z,2.63
2023-01-17T23:10:49.775Z,1.88
2023-01-17T23:13:41.285Z,3.20
2023-01-17T23:16:47.508Z,1.45
2023-01-17T23:26:09.071Z,1.88
2023-01-17T23:32:23.480Z,5.65
2023-01-17T23:35:11.988Z,3.13
2023-01-17T23:38:19.959Z,3.55
2023-01-17T23:45:03.567Z,8.48
2023-01-17T23:52:50.105Z,3.20
